createdAt,value
2019-06-10T00:00:35.810Z,0.8
2019-06-10T00:01:15.978Z,0.8
2019-06-10T00:01:57.143Z,0.8
2019-06-10T00:02:36.179Z,0.6
2019-06-10T00:03:16.544Z,0.6
2019-06-10T00:04:16.734Z,0.0
2019-06-10T00:04:57.585Z,0.0
2019-06-10T00:05:37.258Z,0.0
2019-06-10T00:06:17.292Z,0.0
2019-06-10T00:06:57.744Z,0.0
2019-06-10T00:07:37.599Z,0.0
2019-06-10T00:08:17.787Z,0.0
2019-06-10T00:09:20.900Z,0.0
2019-06-10T00:10:07.414Z,0.0
2019-06-10T00:10:46.706Z,0.0
2019-06-10T00:11:16.784Z,0.0
2019-06-10T00:11:58.326Z,0.0
2019-06-10T00:12:37.371Z,0.0
2019-06-10T00:13:27.716Z,0.4
2019-06-10T00:15:08.029Z,0.8
2019-06-10T00:15:48.193Z,0.8
2019-06-10T00:16:38.384Z,0.8
2019-06-10T00:17:10.770Z,0.8
2019-06-10T00:17:55.459Z,0.8
2019-06-10T00:18:50.978Z,0.8
2019-06-10T00:19:40.871Z,0.2
2019-06-10T00:20:21.562Z,0.2
2019-06-10T00:21:50.871Z,0.0
2019-06-10T00:23:11.995Z,0.4
2019-06-10T00:24:41.097Z,0.8
2019-06-10T00:25:21.057Z,0.8
2019-06-10T00:26:12.378Z,0.4
2019-06-10T00:26:51.295Z,0.8
2019-06-10T00:28:12.838Z,0.8
2019-06-10T00:29:12.854Z,0.2
2019-06-10T00:31:13.018Z,0.6
2019-06-10T00:33:44.260Z,0.2
2019-06-10T00:34:24.395Z,0.4
2019-06-10T00:35:24.925Z,0.7
2019-06-10T00:36:44.918Z,0.8
2019-06-10T00:37:15.145Z,0.8
2019-06-10T00:37:55.041Z,0.9
2019-06-10T00:38:45.190Z,0.6
2019-06-10T00:39:25.580Z,0.8
2019-06-10T00:40:21.606Z,0.8
2019-06-10T00:41:42.770Z,0.8
2019-06-10T00:42:14.989Z,0.8
2019-06-10T00:44:42.296Z,1.0
2019-06-10T00:45:22.317Z,1.3
2019-06-10T00:45:52.310Z,1.8
2019-06-10T00:47:14.858Z,1.2
2019-06-10T00:48:07.393Z,0.8
2019-06-10T00:48:53.132Z,1.1
2019-06-10T00:50:14.762Z,1.7
2019-06-10T00:50:53.674Z,1.6
2019-06-10T00:52:14.133Z,1.4
2019-06-10T00:52:54.036Z,1.5
2019-06-10T00:53:44.348Z,1.3
2019-06-10T00:54:24.344Z,1.4
2019-06-10T00:55:14.376Z,1.6
2019-06-10T00:55:44.693Z,1.9
2019-06-10T00:56:24.682Z,1.8
2019-06-10T00:57:45.188Z,1.0
2019-06-10T00:59:15.529Z,1.0
2019-06-10T00:59:55.528Z,0.9
2019-06-10T01:00:25.964Z,1.0
2019-06-10T01:01:45.681Z,0.9
2019-06-10T01:02:15.749Z,0.9
2019-06-10T01:02:55.647Z,0.6
2019-06-10T01:03:45.886Z,0.6
2019-06-10T01:04:26.084Z,0.9
2019-06-10T01:05:07.249Z,0.9
2019-06-10T01:05:46.322Z,0.8
2019-06-10T01:06:16.324Z,0.8
2019-06-10T01:06:56.476Z,0.8
2019-06-10T01:07:26.723Z,0.8
2019-06-10T01:08:06.818Z,1.0
2019-06-10T01:09:06.975Z,0.8
2019-06-10T01:09:56.733Z,1.0
2019-06-10T01:10:36.818Z,1.0
2019-06-10T01:11:27.247Z,0.8
2019-06-10T01:12:07.362Z,1.1
2019-06-10T01:12:47.403Z,1.4
2019-06-10T01:13:47.870Z,0.9
2019-06-10T01:14:28.122Z,1.0
2019-06-10T01:15:09.390Z,1.0
2019-06-10T01:15:48.937Z,1.1
2019-06-10T01:16:28.684Z,1.2
2019-06-10T01:17:11.838Z,1.4
2019-06-10T01:17:50.976Z,1.6
2019-06-10T01:18:50.378Z,1.3
2019-06-10T01:19:31.039Z,1.1
2019-06-10T01:20:10.505Z,0.8
2019-06-10T01:20:51.684Z,0.8
2019-06-10T01:21:21.786Z,0.8
2019-06-10T01:22:01.514Z,0.9
2019-06-10T01:22:51.594Z,0.8
2019-06-10T01:23:41.588Z,0.8
2019-06-10T01:24:22.275Z,0.8
2019-06-10T01:25:01.620Z,0.9
2019-06-10T01:25:42.145Z,0.8
2019-06-10T01:26:21.636Z,0.8
2019-06-10T01:26:51.206Z,0.8
2019-06-10T01:27:31.544Z,0.8
2019-06-10T01:28:01.549Z,0.8
2019-06-10T01:29:01.726Z,0.8
2019-06-10T01:29:41.735Z,0.6
2019-06-10T01:30:26.358Z,0.6
2019-06-10T01:30:52.034Z,0.8
2019-06-10T01:31:32.049Z,0.4
2019-06-10T01:32:02.376Z,0.4
2019-06-10T01:33:42.299Z,0.0
2019-06-10T01:34:22.669Z,0.0
2019-06-10T01:34:52.841Z,0.6
2019-06-10T01:35:35.644Z,0.8
2019-06-10T01:36:25.585Z,0.8
2019-06-10T01:37:06.751Z,0.8
2019-06-10T01:37:46.284Z,0.8
2019-06-10T01:38:46.601Z,0.8
2019-06-10T01:39:26.799Z,0.8
2019-06-10T01:40:00.744Z,0.8
2019-06-10T01:41:21.311Z,0.8
2019-06-10T01:41:51.169Z,0.8
2019-06-10T01:42:30.723Z,0.8
2019-06-10T01:43:01.111Z,0.8
2019-06-10T01:44:01.683Z,1.0
2019-06-10T01:45:21.315Z,1.0
2019-06-10T01:45:51.287Z,0.8
2019-06-10T01:46:31.694Z,0.8
2019-06-10T01:47:01.496Z,0.8
2019-06-10T01:49:21.795Z,0.8
2019-06-10T01:49:52.200Z,0.8
2019-06-10T01:50:32.446Z,0.8
2019-06-10T01:51:02.259Z,0.6
2019-06-10T01:52:22.938Z,0.8
2019-06-10T01:53:02.554Z,0.4
2019-06-10T01:53:52.763Z,0.0
2019-06-10T01:54:32.982Z,0.0
2019-06-10T01:55:53.499Z,0.0
2019-06-10T01:56:33.650Z,0.0
2019-06-10T01:57:53.851Z,0.0
2019-06-10T01:59:23.995Z,0.0
2019-06-10T02:00:54.348Z,0.0
2019-06-10T02:01:24.360Z,0.0
2019-06-10T02:02:54.728Z,0.0
2019-06-10T02:03:55.048Z,0.0
2019-06-10T02:04:25.252Z,0.0
2019-06-10T02:05:55.654Z,0.0
2019-06-10T02:06:26.016Z,0.0
2019-06-10T02:07:05.834Z,0.0
2019-06-10T02:07:35.938Z,0.0
2019-06-10T02:08:35.899Z,0.0
2019-06-10T02:09:26.023Z,0.0
2019-06-10T02:11:01.591Z,0.6
2019-06-10T02:12:23.986Z,0.0
2019-06-10T02:13:01.955Z,0.0
2019-06-10T02:14:02.842Z,0.0
2019-06-10T02:15:23.154Z,0.2
2019-06-10T02:16:03.479Z,0.4
2019-06-10T02:16:33.468Z,0.8
2019-06-10T02:18:03.695Z,0.0
2019-06-10T02:19:00.012Z,0.2
2019-06-10T02:19:33.920Z,0.0
2019-06-10T02:20:54.281Z,0.0
2019-06-10T02:21:34.304Z,0.0
2019-06-10T02:22:54.674Z,0.0
2019-06-10T02:24:25.068Z,0.0
2019-06-10T02:25:55.881Z,0.0
2019-06-10T02:26:25.910Z,0.0
2019-06-10T02:27:05.923Z,0.0
2019-06-10T02:27:36.104Z,0.0
2019-06-10T02:28:36.484Z,0.0
2019-06-10T02:29:26.346Z,0.0
2019-06-10T02:30:14.660Z,0.0
2019-06-10T02:30:41.245Z,0.0
2019-06-10T02:31:19.753Z,0.0
2019-06-10T02:31:57.169Z,0.0
2019-06-10T02:32:31.555Z,0.0
2019-06-10T02:33:30.272Z,0.0
2019-06-10T02:34:07.413Z,0.0
2019-06-10T02:34:47.485Z,0.2
2019-06-10T02:35:26.978Z,0.4
2019-06-10T02:35:57.757Z,0.6
2019-06-10T02:36:31.404Z,0.8
2019-06-10T02:37:07.824Z,0.8
2019-06-10T02:37:38.412Z,0.8
2019-06-10T02:38:39.477Z,0.8
2019-06-10T02:39:24.391Z,0.8
2019-06-10T02:40:04.406Z,0.8
2019-06-10T02:41:53.732Z,0.8
2019-06-10T02:42:35.710Z,0.6
2019-06-10T02:43:29.312Z,0.0
2019-06-10T02:44:54.193Z,0.0
2019-06-10T02:45:37.419Z,0.0
2019-06-10T02:46:04.823Z,0.5
2019-06-10T02:47:54.476Z,0.8
2019-06-10T02:48:54.844Z,0.9
2019-06-10T02:49:47.858Z,0.9
2019-06-10T02:51:30.668Z,0.8
2019-06-10T02:53:45.819Z,1.2
2019-06-10T02:54:31.046Z,1.0
2019-06-10T02:55:05.835Z,0.9
2019-06-10T02:55:46.054Z,0.9
2019-06-10T02:56:17.214Z,0.6
2019-06-10T02:56:55.865Z,0.6
2019-06-10T02:57:39.937Z,0.6
2019-06-10T02:58:46.058Z,0.8
2019-06-10T02:59:27.269Z,0.8
2019-06-10T03:00:15.603Z,0.8
2019-06-10T03:00:43.338Z,0.8
2019-06-10T03:01:30.449Z,0.8
2019-06-10T03:02:06.384Z,0.8
2019-06-10T03:02:36.741Z,0.8
2019-06-10T03:03:49.496Z,0.8
2019-06-10T03:04:31.556Z,0.8
2019-06-10T03:05:07.143Z,0.8
2019-06-10T03:05:40.753Z,0.8
2019-06-10T03:06:33.155Z,0.8
2019-06-10T03:07:07.604Z,0.8
2019-06-10T03:07:37.725Z,0.8
2019-06-10T03:08:47.791Z,0.8
2019-06-10T03:09:37.761Z,0.6
2019-06-10T03:12:04.281Z,0.8
2019-06-10T03:13:33.090Z,0.8
2019-06-10T03:14:13.098Z,0.8
2019-06-10T03:16:04.035Z,0.8
2019-06-10T03:16:44.235Z,0.8
2019-06-10T03:18:15.767Z,0.8
2019-06-10T03:19:43.856Z,0.8
2019-06-10T03:20:38.640Z,0.0
2019-06-10T03:21:18.544Z,0.0
2019-06-10T03:21:58.563Z,0.4
2019-06-10T03:22:38.840Z,0.8
2019-06-10T03:23:19.816Z,0.8
2019-06-10T03:23:53.087Z,0.8
2019-06-10T03:24:32.758Z,0.2
2019-06-10T03:25:42.239Z,0.0
2019-06-10T03:26:15.184Z,0.0
2019-06-10T03:26:58.225Z,0.0
2019-06-10T03:27:38.359Z,0.0
2019-06-10T03:28:19.451Z,0.0
2019-06-10T03:28:58.638Z,0.0
2019-06-10T03:29:38.688Z,0.0
2019-06-10T03:30:54.878Z,0.4
2019-06-10T03:31:37.003Z,0.8
2019-06-10T03:32:14.484Z,0.8
2019-06-10T03:32:50.832Z,0.0
2019-06-10T03:33:26.981Z,0.0
2019-06-10T03:34:05.208Z,0.0
2019-06-10T03:35:17.395Z,0.0
2019-06-10T03:35:57.518Z,0.0
2019-06-10T03:36:27.741Z,0.0
2019-06-10T03:37:12.897Z,0.0
2019-06-10T03:37:52.753Z,0.0
2019-06-10T03:38:23.586Z,0.0
2019-06-10T03:40:13.113Z,0.0
2019-06-10T03:41:03.359Z,0.0
2019-06-10T03:41:43.970Z,0.0
2019-06-10T03:42:14.323Z,0.0
2019-06-10T03:42:54.203Z,0.0
2019-06-10T03:43:26.069Z,0.0
2019-06-10T03:44:06.891Z,0.0
2019-06-10T03:45:17.402Z,0.0
2019-06-10T03:47:07.365Z,0.0
2019-06-10T03:47:52.697Z,0.0
2019-06-10T03:48:23.783Z,0.0
2019-06-10T03:50:17.139Z,0.6
2019-06-10T03:50:56.628Z,0.6
2019-06-10T03:51:36.642Z,0.6
2019-06-10T03:52:29.473Z,1.2
2019-06-10T03:53:12.811Z,1.7
2019-06-10T03:53:53.032Z,1.9
2019-06-10T03:55:42.699Z,1.8
2019-06-10T03:56:28.178Z,1.6
2019-06-10T03:56:57.559Z,1.8
2019-06-10T03:57:38.917Z,1.7
2019-06-10T03:58:19.922Z,1.4
2019-06-10T03:58:58.829Z,1.1
2019-06-10T03:59:52.646Z,1.2
2019-06-10T04:01:21.888Z,1.3
2019-06-10T04:02:02.296Z,1.8
2019-06-10T04:02:34.407Z,1.4
2019-06-10T04:03:59.297Z,1.4
2019-06-10T04:04:52.277Z,1.0
2019-06-10T04:05:35.903Z,0.8
2019-06-10T04:06:17.221Z,0.8
2019-06-10T04:06:49.197Z,0.8
2019-06-10T04:08:14.518Z,0.8
2019-06-10T04:08:45.321Z,0.8
2019-06-10T04:09:27.055Z,0.8
2019-06-10T04:11:07.648Z,0.8
2019-06-10T04:11:47.938Z,0.8
2019-06-10T04:12:32.162Z,0.8
2019-06-10T04:13:55.535Z,0.8
2019-06-10T04:15:02.859Z,0.8
2019-06-10T04:15:43.041Z,0.8
2019-06-10T04:17:04.564Z,0.8
2019-06-10T04:17:47.494Z,0.8
2019-06-10T04:18:42.955Z,0.8
2019-06-10T04:19:25.465Z,0.8
2019-06-10T04:20:28.120Z,0.6
2019-06-10T04:21:02.016Z,0.8
2019-06-10T04:22:26.826Z,0.8
2019-06-10T04:22:56.158Z,0.8
2019-06-10T04:23:36.963Z,0.8
2019-06-10T04:24:28.605Z,0.8
2019-06-10T04:25:36.179Z,0.8
2019-06-10T04:27:03.182Z,0.8
2019-06-10T04:27:43.454Z,0.8
2019-06-10T04:28:33.024Z,0.6
2019-06-10T04:29:12.881Z,0.6
2019-06-10T04:30:15.814Z,0.6
2019-06-10T04:30:53.723Z,0.8
2019-06-10T04:31:42.438Z,0.8
2019-06-10T04:32:24.508Z,0.8
2019-06-10T04:33:13.656Z,0.8
2019-06-10T04:33:56.291Z,0.8
2019-06-10T04:35:04.680Z,0.8
2019-06-10T04:35:47.791Z,0.8
2019-06-10T04:36:18.323Z,0.8
2019-06-10T04:36:59.994Z,0.8
2019-06-10T04:37:42.776Z,0.8
2019-06-10T04:38:29.062Z,0.8
2019-06-10T04:42:20.740Z,1.3
2019-06-10T04:43:12.344Z,1.3
2019-06-10T04:43:57.264Z,0.8
2019-06-10T04:45:36.811Z,0.8
2019-06-10T04:47:12.029Z,0.6
2019-06-10T04:47:55.910Z,0.8
2019-06-10T04:48:32.578Z,1.0
2019-06-10T04:50:37.119Z,1.1
2019-06-10T04:51:46.599Z,0.8
2019-06-10T04:53:23.351Z,1.3
2019-06-10T04:54:06.133Z,1.7
2019-06-10T04:56:39.341Z,1.2
2019-06-10T04:58:36.500Z,0.8
2019-06-10T04:59:16.513Z,0.8
2019-06-10T05:00:27.599Z,0.9
2019-06-10T05:02:16.625Z,0.8
2019-06-10T05:02:56.661Z,0.8
2019-06-10T05:04:27.083Z,0.8
2019-06-10T05:06:27.219Z,0.8
2019-06-10T05:07:06.708Z,0.8
2019-06-10T05:07:46.727Z,0.2
2019-06-10T05:08:27.897Z,0.0
2019-06-10T05:08:56.760Z,0.0
2019-06-10T05:10:06.746Z,0.0
2019-06-10T05:10:46.763Z,0.0
2019-06-10T05:11:27.315Z,0.0
2019-06-10T05:12:06.790Z,0.0
2019-06-10T05:12:47.856Z,0.2
2019-06-10T05:13:27.977Z,0.0
2019-06-10T05:13:56.802Z,0.0
2019-06-10T05:15:06.850Z,0.0
2019-06-10T05:15:46.840Z,0.0
2019-06-10T05:16:28.823Z,0.0
2019-06-10T05:17:46.858Z,0.0
2019-06-10T05:18:27.558Z,0.0
2019-06-10T05:18:56.898Z,0.0
2019-06-10T05:20:55.723Z,0.4
2019-06-10T05:21:17.004Z,0.2
2019-06-10T05:21:57.013Z,0.0
2019-06-10T05:22:28.403Z,0.2
2019-06-10T05:23:47.056Z,0.0
2019-06-10T05:24:29.352Z,0.0
2019-06-10T05:25:28.136Z,0.0
2019-06-10T05:27:17.108Z,0.0
2019-06-10T05:27:57.201Z,0.0
2019-06-10T05:29:17.254Z,0.0
2019-06-10T05:30:17.296Z,0.6
2019-06-10T05:30:57.304Z,0.4
2019-06-10T05:32:17.347Z,0.0
2019-06-10T05:32:47.355Z,0.0
2019-06-10T05:34:17.371Z,0.4
2019-06-10T05:35:28.403Z,0.8
2019-06-10T05:35:57.481Z,0.8
2019-06-10T05:37:17.435Z,0.8
2019-06-10T05:37:57.471Z,0.8
2019-06-10T05:38:28.790Z,0.8
2019-06-10T05:40:47.485Z,0.0
2019-06-10T05:42:17.516Z,0.0
2019-06-10T05:42:47.520Z,0.0
2019-06-10T05:44:17.576Z,0.0
2019-06-10T05:45:28.814Z,0.0
2019-06-10T05:46:47.615Z,0.0
2019-06-10T05:47:28.266Z,0.0
2019-06-10T05:48:47.644Z,0.0
2019-06-10T05:49:57.719Z,0.0
2019-06-10T05:51:17.704Z,0.0
2019-06-10T05:51:57.756Z,0.0
2019-06-10T05:53:17.720Z,0.0
2019-06-10T05:53:57.734Z,0.0
2019-06-10T05:54:57.777Z,0.0
2019-06-10T05:56:17.800Z,0.0
2019-06-10T05:56:57.813Z,0.0
2019-06-10T05:57:27.808Z,0.0
2019-06-10T05:58:52.249Z,0.2
2019-06-10T06:00:02.981Z,0.2
2019-06-10T06:00:50.315Z,0.0
2019-06-10T06:01:30.326Z,0.0
2019-06-10T06:02:52.228Z,0.0
2019-06-10T06:03:30.385Z,0.0
2019-06-10T06:04:03.058Z,0.0
2019-06-10T06:05:52.467Z,0.0
2019-06-10T06:06:33.340Z,0.0
2019-06-10T06:07:02.339Z,0.0
2019-06-10T06:08:22.669Z,0.0
2019-06-10T06:08:50.471Z,0.0
2019-06-10T06:10:02.385Z,0.0
2019-06-10T06:10:52.630Z,0.0
2019-06-10T06:11:33.407Z,0.0
2019-06-10T06:12:02.471Z,0.0
2019-06-10T06:13:23.086Z,0.0
2019-06-10T06:13:52.190Z,0.0
2019-06-10T06:15:02.313Z,0.0
2019-06-10T06:15:52.730Z,0.0
2019-06-10T06:16:33.062Z,0.0
2019-06-10T06:17:02.188Z,0.0
2019-06-10T06:18:22.541Z,0.0
2019-06-10T06:18:52.622Z,0.0
2019-06-10T06:20:02.687Z,0.0
2019-06-10T06:20:52.582Z,0.0
2019-06-10T06:21:35.937Z,0.0
2019-06-10T06:22:02.206Z,0.0
2019-06-10T06:23:22.662Z,0.0
2019-06-10T06:24:03.822Z,0.0
2019-06-10T06:25:23.954Z,0.0
2019-06-10T06:26:03.594Z,0.0
2019-06-10T06:26:53.228Z,0.0
2019-06-10T06:27:33.015Z,0.0
2019-06-10T06:28:53.244Z,0.0
2019-06-10T06:30:04.108Z,0.0
2019-06-10T06:31:23.128Z,0.0
2019-06-10T06:32:02.658Z,0.0
2019-06-10T06:33:22.102Z,0.0
2019-06-10T06:34:02.981Z,0.0
2019-06-10T06:35:52.405Z,0.0
2019-06-10T06:36:33.300Z,0.0
2019-06-10T06:37:53.933Z,0.0
2019-06-10T06:38:33.487Z,0.0
2019-06-10T06:40:53.675Z,0.6
2019-06-10T06:41:32.037Z,0.8
2019-06-10T06:43:02.716Z,0.0
2019-06-10T06:44:52.516Z,0.0
2019-06-10T06:45:34.010Z,0.0
2019-06-10T06:46:02.403Z,0.0
2019-06-10T06:47:22.543Z,0.0
2019-06-10T06:48:02.972Z,0.0
2019-06-10T06:49:53.066Z,0.0
2019-06-10T06:50:34.016Z,0.0
2019-06-10T06:51:05.369Z,0.0
2019-06-10T06:52:35.305Z,0.0
2019-06-10T06:53:19.270Z,0.0
2019-06-10T06:54:53.006Z,0.0
2019-06-10T06:55:33.653Z,0.0
2019-06-10T06:56:03.500Z,0.0
2019-06-10T06:57:22.335Z,0.0
2019-06-10T06:58:03.337Z,0.0
2019-06-10T06:58:43.213Z,0.0
2019-06-10T06:59:52.750Z,0.0
2019-06-10T07:00:48.727Z,0.0
2019-06-10T07:01:10.017Z,0.0
2019-06-10T07:01:44.023Z,0.0
2019-06-10T07:02:22.835Z,0.0
2019-06-10T07:03:03.071Z,0.0
2019-06-10T07:03:44.853Z,0.0
2019-06-10T07:04:52.782Z,0.0
2019-06-10T07:05:35.208Z,0.0
2019-06-10T07:06:02.898Z,0.0
2019-06-10T07:06:43.286Z,0.2
2019-06-10T07:07:22.842Z,0.6
2019-06-10T07:08:02.863Z,0.8
2019-06-10T07:08:33.324Z,0.8
2019-06-10T07:09:13.597Z,0.4
2019-06-10T07:10:22.919Z,0.6
2019-06-10T07:11:02.967Z,0.6
2019-06-10T07:11:45.014Z,0.6
2019-06-10T07:12:23.060Z,0.2
2019-06-10T07:13:03.033Z,0.0
2019-06-10T07:13:35.386Z,0.0
2019-06-10T07:14:13.521Z,0.0
2019-06-10T07:15:23.070Z,0.0
2019-06-10T07:16:03.208Z,0.0
2019-06-10T07:16:45.910Z,0.0
2019-06-10T07:17:23.127Z,0.4
2019-06-10T07:18:03.117Z,0.0
2019-06-10T07:18:37.533Z,0.0
2019-06-10T07:19:13.323Z,0.0
2019-06-10T07:20:23.157Z,0.4
2019-06-10T07:21:13.340Z,0.4
2019-06-10T07:22:08.240Z,0.2
2019-06-10T07:22:35.107Z,0.4
2019-06-10T07:23:13.331Z,0.2
2019-06-10T07:23:53.332Z,0.4
2019-06-10T07:24:35.681Z,0.0
2019-06-10T07:25:06.440Z,0.0
2019-06-10T07:26:23.479Z,0.0
2019-06-10T07:27:53.527Z,0.0
2019-06-10T07:28:35.599Z,0.0
2019-06-10T07:30:23.675Z,0.0
2019-06-10T07:31:53.909Z,0.0
2019-06-10T07:32:35.647Z,0.0
2019-06-10T07:33:03.700Z,0.0
2019-06-10T07:34:53.783Z,0.0
2019-06-10T07:35:34.511Z,0.0
2019-06-10T07:36:53.898Z,0.0
2019-06-10T07:37:34.898Z,0.0
2019-06-10T07:38:03.977Z,0.0
2019-06-10T07:39:53.925Z,0.0
2019-06-10T07:40:53.965Z,0.0
2019-06-10T07:41:54.004Z,0.0
2019-06-10T07:42:54.979Z,0.0
2019-06-10T07:43:54.133Z,0.0
2019-06-10T07:45:54.113Z,0.0
2019-06-10T07:46:54.185Z,0.0
2019-06-10T07:47:54.140Z,0.0
2019-06-10T07:48:56.568Z,0.0
2019-06-10T07:50:24.243Z,0.0
2019-06-10T07:56:38.615Z,0.0
2019-06-10T08:01:36.308Z,0.8
2019-06-10T08:10:54.980Z,0.0
2019-06-10T08:15:55.095Z,0.0
2019-06-10T08:16:55.102Z,0.0
2019-06-10T08:17:55.147Z,0.0
2019-06-10T08:19:19.944Z,0.0
2019-06-10T08:20:25.237Z,0.2
2019-06-10T08:21:05.237Z,0.0
2019-06-10T08:21:55.269Z,0.0
2019-06-10T08:22:57.715Z,0.0
2019-06-10T08:23:55.319Z,0.0
2019-06-10T08:25:25.332Z,0.0
2019-06-10T08:26:05.361Z,0.0
2019-06-10T08:27:05.364Z,0.0
2019-06-10T08:28:05.396Z,0.0
2019-06-10T08:29:05.426Z,0.0
2019-06-10T08:30:35.605Z,0.0
2019-06-10T08:36:00.042Z,0.0
2019-06-10T08:36:55.664Z,0.0
2019-06-10T08:37:55.710Z,0.8
2019-06-10T08:38:55.694Z,0.4
2019-06-10T08:40:25.711Z,0.0
2019-06-10T08:41:05.737Z,0.2
2019-06-10T08:42:05.819Z,0.0
2019-06-10T08:43:05.813Z,0.4
2019-06-10T08:43:55.829Z,0.8
2019-06-10T08:45:25.844Z,0.8
2019-06-10T08:46:05.858Z,0.8
2019-06-10T08:47:05.869Z,0.8
2019-06-10T08:48:05.936Z,0.8
2019-06-10T08:48:55.934Z,0.8
2019-06-10T08:50:25.954Z,1.1
2019-06-10T08:51:05.962Z,1.2
2019-06-10T08:52:06.038Z,1.9
2019-06-10T08:53:56.109Z,1.8
2019-06-10T08:55:26.196Z,1.6
2019-06-10T08:56:06.218Z,1.8
2019-06-10T08:57:06.188Z,1.2
2019-06-10T08:57:56.280Z,1.3
2019-06-10T09:00:26.262Z,0.8
2019-06-10T09:01:06.365Z,0.8
2019-06-10T09:02:06.375Z,0.8
2019-06-10T09:02:56.385Z,0.2
2019-06-10T09:03:56.439Z,0.0
2019-06-10T09:05:26.457Z,0.8
2019-06-10T09:06:06.583Z,0.6
2019-06-10T09:07:06.583Z,0.6
2019-06-10T09:08:06.602Z,0.8
2019-06-10T09:09:06.643Z,0.8
2019-06-10T09:10:38.651Z,0.8
2019-06-10T09:11:36.759Z,0.8
2019-06-10T09:12:49.599Z,0.8
2019-06-10T09:13:48.268Z,0.6
2019-06-10T09:15:16.843Z,0.6
2019-06-10T09:16:10.755Z,0.2
2019-06-10T09:16:56.869Z,0.0
2019-06-10T09:17:56.930Z,0.0
2019-06-10T09:18:56.888Z,0.0
2019-06-10T09:20:26.930Z,0.4
2019-06-10T09:21:06.975Z,0.6
2019-06-10T09:21:56.969Z,0.6
2019-06-10T09:23:14.727Z,0.8
2019-06-10T09:23:59.565Z,0.8
2019-06-10T09:25:26.990Z,0.4
2019-06-10T09:26:06.994Z,0.0
2019-06-10T09:27:07.021Z,0.0
2019-06-10T09:28:07.170Z,0.0
2019-06-10T09:29:07.154Z,0.0
2019-06-10T09:30:27.280Z,0.4
2019-06-10T09:31:07.355Z,0.2
2019-06-10T09:32:07.373Z,0.0
2019-06-10T09:33:07.424Z,0.0
2019-06-10T09:34:07.508Z,0.8
2019-06-10T09:35:37.482Z,0.0
2019-06-10T09:36:37.538Z,0.0
2019-06-10T09:37:37.560Z,0.2
2019-06-10T09:38:37.570Z,0.8
2019-06-10T09:40:07.698Z,1.4
2019-06-10T09:40:50.498Z,0.8
2019-06-10T09:42:02.435Z,1.0
2019-06-10T09:42:57.726Z,0.8
2019-06-10T09:43:57.735Z,0.8
2019-06-10T09:45:27.791Z,0.4
2019-06-10T09:46:07.809Z,0.9
2019-06-10T09:47:00.191Z,0.8
2019-06-10T09:47:59.751Z,0.8
2019-06-10T09:48:57.890Z,1.0
2019-06-10T09:50:27.978Z,0.7
2019-06-10T09:51:07.967Z,0.2
2019-06-10T09:52:07.933Z,0.6
2019-06-10T09:53:08.012Z,1.0
2019-06-10T09:54:08.035Z,1.7
2019-06-10T09:55:38.111Z,1.0
2019-06-10T09:56:38.121Z,1.1
2019-06-10T09:57:44.817Z,1.0
2019-06-10T09:58:45.961Z,1.6
2019-06-10T10:00:12.527Z,1.4
2019-06-10T10:01:03.209Z,1.8
2019-06-10T10:02:05.608Z,0.8
2019-06-10T10:03:03.448Z,1.1
2019-06-10T10:04:02.354Z,1.8
2019-06-10T10:05:33.770Z,1.4
2019-06-10T10:06:15.248Z,1.7
2019-06-10T10:07:12.437Z,1.4
2019-06-10T10:08:02.448Z,1.1
2019-06-10T10:09:03.439Z,0.8
2019-06-10T10:10:32.785Z,0.8
2019-06-10T10:11:12.889Z,0.9
2019-06-10T10:12:12.498Z,1.4
2019-06-10T10:13:13.131Z,0.8
2019-06-10T10:14:15.771Z,0.9
2019-06-10T10:15:43.563Z,1.5
2019-06-10T10:16:45.975Z,1.2
2019-06-10T10:17:44.734Z,0.8
2019-06-10T10:18:45.741Z,0.9
2019-06-10T10:20:12.776Z,0.4
2019-06-10T10:21:03.783Z,0.6
2019-06-10T10:22:03.059Z,0.9
2019-06-10T10:23:02.855Z,0.9
2019-06-10T10:24:07.636Z,0.8
2019-06-10T10:25:33.381Z,0.8
2019-06-10T10:26:13.228Z,0.8
2019-06-10T10:27:13.370Z,0.8
2019-06-10T10:28:13.376Z,0.8
2019-06-10T10:29:13.214Z,0.8
2019-06-10T10:30:45.404Z,1.3
2019-06-10T10:31:33.127Z,0.9
2019-06-10T10:32:13.246Z,0.8
2019-06-10T10:33:13.292Z,1.0
2019-06-10T10:34:13.551Z,1.7
2019-06-10T10:35:45.800Z,0.8
2019-06-10T10:36:45.314Z,0.6
2019-06-10T10:37:44.542Z,0.9
2019-06-10T10:38:44.628Z,1.1
2019-06-10T10:40:13.427Z,0.9
2019-06-10T10:46:14.111Z,0.4
2019-06-10T10:47:13.572Z,0.4
2019-06-10T10:48:14.134Z,0.2
2019-06-10T10:49:44.643Z,0.2
2019-06-10T10:50:44.151Z,0.5
2019-06-10T10:51:33.675Z,1.1
2019-06-10T10:52:13.681Z,0.6
2019-06-10T10:53:13.814Z,0.9
2019-06-10T10:54:45.000Z,1.3
2019-06-10T10:55:45.013Z,0.7
2019-06-10T10:56:46.042Z,1.7
2019-06-10T10:57:44.974Z,1.5
2019-06-10T10:58:45.823Z,1.2
2019-06-10T11:00:13.903Z,2.0
2019-06-10T11:06:14.178Z,1.7
2019-06-10T11:07:14.223Z,1.6
2019-06-10T11:08:14.401Z,0.8
2019-06-10T11:09:44.861Z,1.4
2019-06-10T11:10:34.166Z,0.8
2019-06-10T11:11:14.175Z,0.8
2019-06-10T11:12:14.177Z,1.1
2019-06-10T11:13:14.188Z,1.8
2019-06-10T11:14:44.863Z,1.3
2019-06-10T11:15:45.741Z,1.4
2019-06-10T11:16:45.227Z,1.8
2019-06-10T11:17:45.057Z,1.6
2019-06-10T11:18:45.172Z,1.6
2019-06-10T11:20:14.332Z,1.2
2019-06-10T11:26:14.590Z,2.0
2019-06-10T11:27:14.625Z,1.3
2019-06-10T11:28:14.763Z,1.0
2019-06-10T11:29:45.863Z,1.4
2019-06-10T11:30:34.721Z,1.3
2019-06-10T11:31:14.800Z,1.9
2019-06-10T11:32:15.113Z,1.7
2019-06-10T11:33:14.808Z,1.8
2019-06-10T11:34:45.725Z,2.2
2019-06-10T11:35:44.928Z,2.1
2019-06-10T11:36:46.129Z,2.4
2019-06-10T11:37:44.915Z,2.0
2019-06-10T11:38:46.200Z,1.8
2019-06-10T11:40:14.873Z,1.3
2019-06-10T11:46:07.386Z,0.6
2019-06-10T11:51:05.239Z,1.3
2019-06-10T11:52:05.361Z,1.0
2019-06-10T11:53:05.361Z,0.8
2019-06-10T11:54:06.035Z,0.8
2019-06-10T11:55:35.452Z,0.8
2019-06-10T11:56:46.173Z,0.9
2019-06-10T11:57:45.521Z,0.9
2019-06-10T11:58:45.510Z,1.0
2019-06-10T12:00:17.357Z,0.8
2019-06-10T12:06:05.913Z,0.4
2019-06-10T12:11:05.976Z,0.6
2019-06-10T12:12:05.952Z,0.4
2019-06-10T12:13:07.050Z,1.1
2019-06-10T12:14:05.966Z,1.6
2019-06-10T12:16:13.708Z,0.9
2019-06-10T12:17:20.981Z,1.2
2019-06-10T12:17:50.769Z,1.1
2019-06-10T12:18:46.096Z,1.8
2019-06-10T12:20:16.096Z,0.8
2019-06-10T12:26:06.176Z,0.9
2019-06-10T12:31:06.984Z,1.2
2019-06-10T12:32:07.476Z,1.3
2019-06-10T12:33:06.440Z,1.0
2019-06-10T12:34:06.448Z,1.7
2019-06-10T12:35:36.527Z,1.1
2019-06-10T12:36:46.584Z,1.4
2019-06-10T12:37:46.594Z,1.8
2019-06-10T12:38:46.654Z,1.5
2019-06-10T12:40:16.735Z,1.5
2019-06-10T12:43:56.743Z,1.2
2019-06-10T12:45:26.835Z,1.6
2019-06-10T12:46:06.846Z,1.5
2019-06-10T12:46:58.960Z,1.6
2019-06-10T12:47:58.365Z,0.9
2019-06-10T12:49:00.011Z,1.6
2019-06-10T12:50:27.029Z,1.4
2019-06-10T12:51:09.417Z,1.9
2019-06-10T12:52:07.679Z,1.8
2019-06-10T12:53:07.233Z,1.1
2019-06-10T12:54:37.048Z,1.8
2019-06-10T12:55:42.971Z,1.8
2019-06-10T12:56:47.135Z,1.6
2019-06-10T13:01:04.442Z,1.5
2019-06-10T13:02:10.485Z,2.1
2019-06-10T13:03:03.473Z,1.5
2019-06-10T13:04:31.758Z,1.4
2019-06-10T13:05:33.210Z,1.3
2019-06-10T13:06:12.851Z,1.3
2019-06-10T13:07:05.166Z,1.6
2019-06-10T13:08:03.833Z,1.0
2019-06-10T13:09:32.553Z,1.3
2019-06-10T13:10:33.295Z,1.5
2019-06-10T13:11:13.199Z,1.1
2019-06-10T13:12:13.025Z,0.9
2019-06-10T13:13:12.029Z,0.9
2019-06-10T13:14:43.505Z,1.3
2019-06-10T13:15:43.308Z,1.6
2019-06-10T13:16:43.254Z,1.0
2019-06-10T13:17:43.926Z,1.4
2019-06-10T13:18:42.155Z,1.0
2019-06-10T13:20:13.539Z,1.3
2019-06-10T13:21:06.896Z,0.8
2019-06-10T13:22:04.636Z,1.6
2019-06-10T13:23:15.540Z,1.1
2019-06-10T13:24:33.731Z,0.8
2019-06-10T13:25:33.434Z,0.8
2019-06-10T13:26:16.219Z,0.8
2019-06-10T13:27:12.463Z,0.8
2019-06-10T13:28:12.530Z,1.0
2019-06-10T13:29:43.685Z,1.4
2019-06-10T13:30:34.287Z,1.3
2019-06-10T13:31:13.938Z,1.6
2019-06-10T13:32:12.703Z,1.3
2019-06-10T13:33:14.631Z,2.3
2019-06-10T13:34:42.753Z,2.0
2019-06-10T13:35:44.239Z,1.1
2019-06-10T13:36:42.828Z,1.5
2019-06-10T13:37:42.984Z,1.1
2019-06-10T13:38:43.031Z,1.0
2019-06-10T13:40:13.082Z,1.3
2019-06-10T13:41:04.079Z,0.8
2019-06-10T13:42:04.773Z,1.3
2019-06-10T13:43:03.899Z,1.3
2019-06-10T13:44:32.985Z,1.2
2019-06-10T13:45:33.269Z,0.8
2019-06-10T13:46:13.009Z,1.0
2019-06-10T13:47:14.863Z,1.2
2019-06-10T13:48:14.911Z,0.9
2019-06-10T13:49:43.060Z,0.8
2019-06-10T13:50:43.131Z,0.8
2019-06-10T13:51:43.905Z,1.3
2019-06-10T13:52:43.155Z,2.0
2019-06-10T13:53:46.179Z,1.3
2019-06-10T13:55:13.729Z,1.2
2019-06-10T14:01:21.025Z,0.8
2019-06-10T14:02:13.387Z,1.2
2019-06-10T14:03:16.102Z,1.2
2019-06-10T14:04:43.479Z,1.7
2019-06-10T14:05:34.542Z,1.5
2019-06-10T14:06:32.563Z,1.3
2019-06-10T14:07:17.092Z,0.8
2019-06-10T14:08:15.289Z,1.1
2019-06-10T14:09:43.785Z,0.8
2019-06-10T14:10:43.945Z,0.8
2019-06-10T14:11:43.947Z,0.8
2019-06-10T14:12:48.542Z,0.4
2019-06-10T14:13:44.226Z,0.0
2019-06-10T14:15:16.886Z,0.0
2019-06-10T14:21:18.160Z,0.9
2019-06-10T14:22:06.320Z,1.3
2019-06-10T14:23:04.200Z,0.9
2019-06-10T14:24:34.231Z,1.4
2019-06-10T14:25:34.361Z,1.4
2019-06-10T14:26:16.877Z,0.8
2019-06-10T14:27:16.753Z,0.8
2019-06-10T14:28:25.839Z,0.6
2019-06-10T14:29:44.826Z,0.8
2019-06-10T14:30:44.644Z,0.4
2019-06-10T14:31:47.552Z,0.4
2019-06-10T14:32:44.727Z,0.6
2019-06-10T14:33:44.683Z,0.4
2019-06-10T14:35:16.065Z,0.8
2019-06-10T14:37:54.932Z,0.8
2019-06-10T14:40:20.801Z,0.4
2019-06-10T14:43:06.253Z,0.4
2019-06-10T14:44:35.400Z,0.6
2019-06-10T14:45:35.412Z,0.4
2019-06-10T14:46:35.423Z,0.6
2019-06-10T14:47:35.432Z,0.2
2019-06-10T14:48:35.458Z,0.0